Terminal Aerodrome Forecast
Issued by NWS

Home | Current Version | Previous Version | Graphics & Text | Print | Product List | Glossary On
Versions: 1 2 3 4 5 6 7 8 9 10 11 12 13 14 15 16 17 18
000
FTUS43 KGRB 271600 AAA
TAFAUW
TAF AMD
KAUW 271603Z 2716/2812 32011KT P6SM VCSH BKN025 OVC090
      TEMPO 2716/2718 6SM -TSRA BR SCT020 BKN030CB
     FM271900 33012G19KT P6SM VCSH SCT015 BKN040
     FM272100 34012G16KT P6SM SCT050 BKN100
     FM280100 34009KT P6SM SKC=

USA.gov is the U.S. government's official web portal to all federal, state and local government web resources and services.